Warwick, RI

21:07 EDT le 26 août 2016 (GMT -0400)
Green State | | Change Station

Alt. 62 ft 41.72 °N, 71.43 °W | Updated 16 minutes ago

Clear
Ciel dégagé
82 ° F
Paraît 84 ° F
N
6
Vent Variable Vent de NO

Aujourd'hui
Haut(e) -- | Bas -- ° F
--% Risque de précip.
Hier
Haut(e) -- | Bas -- ° F
Precip. -- pouce
Pression 29.99 pouce
Visibilité 10.0 Miles terrestres
Nuages Ciel dégagé
indice de chaleur 84 ° F
Point de rosée 67 ° F
Humidité 60%
Précipitations 0.00 pouce
Profondeur de la couche neigeuse Non disponible.
6:05 AM 7:28 PM
Lune descendante, 29% visible
METAR KPVD 270051Z 32005KT 10SM CLR 28/19 A2999 RMK AO2 SLP156 T02780194
Pression 29.99 pouce
Visibilité 10.0 Miles terrestres
Nuages Ciel dégagé
indice de chaleur 84 ° F
Point de rosée 67 ° F
Humidité 60%
Précipitations 0.00 pouce
Profondeur de la couche neigeuse Non disponible.
6:05 AM 7:28 PM
Lune descendante, 29% visible
METAR KPVD 270051Z 32005KT 10SM CLR 28/19 A2999 RMK AO2 SLP156 T02780194

10-Day Weather Forecast

Almanac

Astronomie

Aug. 26, 2016 Lever Coucher
Temps réel
Crépuscule civil
Crépuscule nautique
Crépuscule astronomique
Lune
Durée de lumière visible
Longueur du jour
Tomorrow will be .
, % of the Moon is Illuminated

Extrêmes aujourd'hui

State Highs State Lows

Community

WunderPhotos

Upload Photos

1,935,261 Photos téléchargées !

WunderBlog® & News

Nearby

Qualité de l'air

  Qualité de l'air Indice de la qualité de l'air Polluant
Not available.

Épaisseur de neige

Station Depth Altitude

Activité sismique

Ville Distance Mag. Time & Date
Minimum magnitude displayed is 2.5.

Températures des eaux côtières

Lieu Température

Stations

Stations météo à proximité

Emplacement de la station Température Refroidissement éolien Point de rosée Humidité Vent Precip. Alt. Mise à jour Type
                   

Watches & Warnings

There are currently no watches in effect.